Time;durP1;ratioP1;P1;durP2;ratioP2;P2;SDS_P1;SDS_P2;PMS_P1;PMS_P2;Temp;Humidity;BMP_temperature;BMP_pressure;BME280_temperature;BME280_humidity;BME280_pressure;Samples;Min_cycle;Max_cycle;Signal;HPM_P1;HPM_P2
2022/09/14 00:00:16;;;;;;;8.93;5.25;;;;;;;;;;4997029;28;20050;-80
2022/09/14 00:02:45;;;;;;;8.32;5.80;;;;;;;;;;5012762;28;20085;-80
2022/09/14 00:05:13;;;;;;;5.25;4.72;;;;;;;;;;5012832;28;20474;-80
2022/09/14 00:07:40;;;;;;;6.35;5.75;;;;;;;;;;5012810;28;20156;-80
2022/09/14 00:10:07;;;;;;;5.65;5.13;;;;;;;;;;5012975;28;20136;-81
2022/09/14 00:12:34;;;;;;;7.03;5.40;;;;;;;;;;5012962;28;20141;-80
2022/09/14 00:15:02;;;;;;;8.38;5.80;;;;;;;;;;5013269;28;20048;-80
2022/09/14 00:17:29;;;;;;;6.03;5.47;;;;;;;;;;5020014;28;20046;-81
2022/09/14 00:19:56;;;;;;;5.85;5.35;;;;;;;;;;5022234;28;20052;-81
2022/09/14 00:22:23;;;;;;;6.57;5.45;;;;;;;;;;5021658;28;20057;-81
2022/09/14 00:24:50;;;;;;;6.18;5.22;;;;;;;;;;5015738;28;20152;-80
2022/09/14 00:27:17;;;;;;;5.57;5.03;;;;;;;;;;5011754;28;20056;-80
2022/09/14 00:29:47;;;;;;;7.70;5.88;;;;;;;;;;5012517;28;20116;-81
2022/09/14 00:32:14;;;;;;;9.80;5.75;;;;;;;;;;5016844;28;20050;-80
2022/09/14 00:34:42;;;;;;;7.43;5.72;;;;;;;;;;5016669;28;20140;-80
2022/09/14 00:37:10;;;;;;;7.47;6.05;;;;;;;;;;5018176;28;20459;-80
2022/09/14 00:39:38;;;;;;;20.20;6.95;;;;;;;;;;5017708;28;20054;-80
2022/09/14 00:42:05;;;;;;;20.48;6.45;;;;;;;;;;5021305;28;20053;-80
2022/09/14 00:44:32;;;;;;;9.07;6.18;;;;;;;;;;5022609;28;20113;-81
2022/09/14 00:47:01;;;;;;;13.05;6.15;;;;;;;;;;5021902;28;20065;-81
2022/09/14 00:49:33;;;;;;;9.48;6.50;;;;;;;;;;5022825;28;20093;-81
2022/09/14 00:52:12;;;;;;;10.15;6.38;;;;;;;;;;5023705;28;20056;-81
2022/09/14 00:54:50;;;;;;;8.77;5.95;;;;;;;;;;5020465;28;20065;-80
2022/09/14 00:57:18;;;;;;;10.68;6.10;;;;;;;;;;5019549;28;20487;-80
2022/09/14 00:59:47;;;;;;;10.10;6.57;;;;;;;;;;5021436;28;20077;-81
2022/09/14 01:02:14;;;;;;;7.97;5.78;;;;;;;;;;5020422;28;20056;-80
2022/09/14 01:04:42;;;;;;;6.72;6.00;;;;;;;;;;5021372;28;20060;-80
2022/09/14 01:07:10;;;;;;;6.18;5.68;;;;;;;;;;5020331;28;20421;-80
2022/09/14 01:09:56;;;;;;;9.52;6.35;;;;;;;;;;5020397;28;20137;-80
2022/09/14 01:12:28;;;;;;;7.25;6.55;;;;;;;;;;5021340;28;20487;-80
2022/09/14 01:14:56;;;;;;;5.57;5.22;;;;;;;;;;5019010;28;20046;-80
2022/09/14 01:17:28;;;;;;;7.95;6.57;;;;;;;;;;5018538;28;20089;-80
2022/09/14 01:19:58;;;;;;;8.38;6.25;;;;;;;;;;5018866;28;20138;-80
2022/09/14 01:22:32;;;;;;;8.82;6.50;;;;;;;;;;5018170;28;20080;-80
2022/09/14 01:24:59;;;;;;;;;;;;;;;;;;5019674;28;20491;-80
2022/09/14 01:27:26;;;;;;;7.72;6.72;;;;;;;;;;5018513;28;19921;-80
2022/09/14 01:30:02;;;;;;;8.57;6.93;;;;;;;;;;5019074;28;20085;-80
2022/09/14 01:32:41;;;;;;;7.18;6.50;;;;;;;;;;5017768;28;20053;-80
2022/09/14 01:35:08;;;;;;;7.18;6.47;;;;;;;;;;5017311;28;20135;-80
2022/09/14 01:37:41;;;;;;;7.57;6.77;;;;;;;;;;5017437;28;20058;-79
2022/09/14 01:40:11;;;;;;;10.13;7.70;;;;;;;;;;5017121;28;20112;-80
2022/09/14 01:42:40;;;;;;;8.57;7.20;;;;;;;;;;5017475;28;20052;-80
2022/09/14 01:45:09;;;;;;;8.20;6.65;;;;;;;;;;5020096;28;20069;-80
2022/09/14 01:47:39;;;;;;;9.80;6.90;;;;;;;;;;5015595;28;20503;-80
2022/09/14 01:50:18;;;;;;;6.93;6.03;;;;;;;;;;5016769;28;20463;-80
2022/09/14 01:52:48;;;;;;;7.13;6.45;;;;;;;;;;5015469;28;20105;-80
2022/09/14 01:55:17;;;;;;;7.57;6.72;;;;;;;;;;5016372;28;20061;-81
2022/09/14 01:58:03;;;;;;;7.95;6.30;;;;;;;;;;5017180;28;20081;-80
2022/09/14 02:00:30;;;;;;;7.07;6.35;;;;;;;;;;5016278;28;20046;-80
2022/09/14 02:03:01;;;;;;;7.03;6.38;;;;;;;;;;5016093;28;20056;-80
2022/09/14 02:05:28;;;;;;;8.15;6.90;;;;;;;;;;5018607;28;20125;-81
2022/09/14 02:07:56;;;;;;;7.00;6.18;;;;;;;;;;5016210;28;20133;-81
2022/09/14 02:10:23;;;;;;;7.90;6.90;;;;;;;;;;5022280;28;20404;-81
2022/09/14 02:12:51;;;;;;;9.77;7.22;;;;;;;;;;5021730;28;20081;-83
2022/09/14 02:15:20;;;;;;;7.95;7.00;;;;;;;;;;5018690;28;20488;-83
2022/09/14 02:17:47;;;;;;;7.93;7.00;;;;;;;;;;5018735;28;20515;-83
2022/09/14 02:20:26;;;;;;;7.28;6.18;;;;;;;;;;5019420;28;20053;-82
2022/09/14 02:22:53;;;;;;;8.63;7.53;;;;;;;;;;5021300;28;20495;-83
2022/09/14 02:25:21;;;;;;;9.40;7.60;;;;;;;;;;5019487;28;20092;-84
2022/09/14 02:27:48;;;;;;;10.18;8.13;;;;;;;;;;5021536;28;20081;-83
2022/09/14 02:30:16;;;;;;;8.18;7.25;;;;;;;;;;5019991;28;20140;-83
2022/09/14 02:32:46;;;;;;;8.02;7.22;;;;;;;;;;5020506;28;20096;-83
2022/09/14 02:35:20;;;;;;;7.78;6.57;;;;;;;;;;5021836;28;20050;-84
2022/09/14 02:37:47;;;;;;;10.63;7.65;;;;;;;;;;5020461;28;20133;-84
2022/09/14 02:40:20;;;;;;;7.88;6.80;;;;;;;;;;5021094;28;20133;-83
2022/09/14 02:43:03;;;;;;;6.68;6.07;;;;;;;;;;5022011;28;20093;-83
2022/09/14 02:45:53;;;;;;;9.95;6.43;;;;;;;;;;5020422;28;20136;-83
2022/09/14 02:48:32;;;;;;;10.43;7.15;;;;;;;;;;5013589;28;20129;-83
2022/09/14 02:51:14;;;;;;;7.38;6.72;;;;;;;;;;5017475;28;20137;-83
2022/09/14 02:53:44;;;;;;;8.02;7.13;;;;;;;;;;5017152;28;20081;-83
2022/09/14 02:56:12;;;;;;;6.72;6.13;;;;;;;;;;5017364;28;20069;-83
2022/09/14 02:58:41;;;;;;;7.22;6.45;;;;;;;;;;5017518;28;20495;-83
2022/09/14 03:01:11;;;;;;;7.28;6.50;;;;;;;;;;5017450;28;20054;-83
2022/09/14 03:03:39;;;;;;;10.68;7.90;;;;;;;;;;5016675;28;20068;-83
2022/09/14 03:06:07;;;;;;;10.43;6.88;;;;;;;;;;5016442;28;20050;-82
2022/09/14 03:08:34;;;;;;;6.97;6.38;;;;;;;;;;5017376;28;20050;-82
2022/09/14 03:11:01;;;;;;;8.20;7.40;;;;;;;;;;5016722;28;20072;-83
2022/09/14 03:13:29;;;;;;;9.82;7.10;;;;;;;;;;5014779;28;20085;-83
2022/09/14 03:15:56;;;;;;;14.95;8.45;;;;;;;;;;5015299;28;20048;-83
2022/09/14 03:18:23;;;;;;;9.32;8.30;;;;;;;;;;5018436;28;20045;-83
2022/09/14 03:20:50;;;;;;;9.25;6.82;;;;;;;;;;5021017;28;20073;-83
2022/09/14 03:23:17;;;;;;;8.07;7.28;;;;;;;;;;5021450;28;20046;-83
2022/09/14 03:25:45;;;;;;;13.18;9.00;;;;;;;;;;5022935;28;20109;-83
2022/09/14 03:28:12;;;;;;;10.60;8.05;;;;;;;;;;5018047;28;20582;-82
2022/09/14 03:30:40;;;;;;;9.30;7.53;;;;;;;;;;5018076;28;20157;-82
2022/09/14 03:33:07;;;;;;;8.50;7.60;;;;;;;;;;5016038;28;20513;-83
2022/09/14 03:35:34;;;;;;;11.25;8.73;;;;;;;;;;5016406;28;20134;-82
2022/09/14 03:38:02;;;;;;;17.73;11.68;;;;;;;;;;5018630;28;20097;-82
2022/09/14 03:40:29;;;;;;;19.70;12.00;;;;;;;;;;5017331;28;20077;-82
2022/09/14 03:42:57;;;;;;;16.33;10.18;;;;;;;;;;5015837;28;20076;-81
2022/09/14 03:45:24;;;;;;;9.52;8.55;;;;;;;;;;5014491;28;20082;-81
2022/09/14 03:47:51;;;;;;;11.35;8.65;;;;;;;;;;5016504;28;20084;-83
2022/09/14 03:50:19;;;;;;;13.52;9.20;;;;;;;;;;5016239;28;20474;-82
2022/09/14 03:52:46;;;;;;;13.32;8.93;;;;;;;;;;5016416;28;20104;-82
2022/09/14 03:55:13;;;;;;;9.88;8.77;;;;;;;;;;5016179;28;20124;-83
2022/09/14 03:57:40;;;;;;;13.32;9.48;;;;;;;;;;5030323;22;20473;-82
2022/09/14 04:00:09;;;;;;;13.00;9.32;;;;;;;;;;5019158;28;20073;-83
2022/09/14 04:02:36;;;;;;;13.68;8.50;;;;;;;;;;5019676;28;20598;-83
2022/09/14 04:05:03;;;;;;;8.57;7.78;;;;;;;;;;5018474;28;20050;-83
2022/09/14 04:07:31;;;;;;;14.15;10.20;;;;;;;;;;5018192;28;20076;-83
2022/09/14 04:09:58;;;;;;;11.90;10.45;;;;;;;;;;5018380;28;20057;-83
2022/09/14 04:12:25;;;;;;;10.70;8.68;;;;;;;;;;5018303;28;20053;-83
2022/09/14 04:14:52;;;;;;;10.13;9.00;;;;;;;;;;5031137;28;20077;-79
2022/09/14 04:17:19;;;;;;;11.88;8.90;;;;;;;;;;5025238;28;20077;-81
2022/09/14 04:19:46;;;;;;;9.13;8.20;;;;;;;;;;5012979;28;20132;-82
2022/09/14 04:22:13;;;;;;;8.50;7.60;;;;;;;;;;5012733;28;20556;-81
2022/09/14 04:24:41;;;;;;;11.77;9.10;;;;;;;;;;5013657;28;20056;-81
2022/09/14 04:27:08;;;;;;;9.38;7.80;;;;;;;;;;5012400;28;20058;-81
2022/09/14 04:29:35;;;;;;;9.57;8.50;;;;;;;;;;5012315;28;20053;-81
2022/09/14 04:32:03;;;;;;;9.98;8.63;;;;;;;;;;5013188;28;20046;-81
2022/09/14 04:34:30;;;;;;;12.32;7.78;;;;;;;;;;5012709;28;20042;-81
2022/09/14 04:36:57;;;;;;;8.93;8.02;;;;;;;;;;5012408;28;20108;-82
2022/09/14 04:39:25;;;;;;;11.50;9.18;;;;;;;;;;5012155;28;20049;-81
2022/09/14 04:41:52;;;;;;;8.52;7.72;;;;;;;;;;5012520;28;20048;-81
2022/09/14 04:44:19;;;;;;;15.00;10.15;;;;;;;;;;5012134;28;20056;-82
2022/09/14 04:46:46;;;;;;;9.57;7.88;;;;;;;;;;5014595;28;20065;-83
2022/09/14 04:49:17;;;;;;;9.40;8.25;;;;;;;;;;5014249;28;20137;-83
2022/09/14 04:51:44;;;;;;;14.63;9.98;;;;;;;;;;5013698;28;20111;-81
2022/09/14 04:54:13;;;;;;;9.88;8.45;;;;;;;;;;5011743;28;20509;-82
2022/09/14 04:56:40;;;;;;;12.23;9.63;;;;;;;;;;5013297;28;20042;-81
2022/09/14 04:59:07;;;;;;;10.63;8.07;;;;;;;;;;5011544;28;20053;-82
2022/09/14 05:01:42;;;;;;;10.68;9.13;;;;;;;;;;5012009;28;20129;-82
2022/09/14 05:04:10;;;;;;;13.68;10.77;;;;;;;;;;5012788;28;20049;-83
2022/09/14 05:06:38;;;;;;;9.85;8.85;;;;;;;;;;5012450;28;20064;-82
2022/09/14 05:09:13;;;;;;;10.02;8.93;;;;;;;;;;5013019;28;20046;-82
2022/09/14 05:11:41;;;;;;;14.82;9.98;;;;;;;;;;5013556;28;20575;-83
2022/09/14 05:14:10;;;;;;;10.00;8.73;;;;;;;;;;5012923;28;20126;-83
2022/09/14 05:16:37;;;;;;;10.38;9.35;;;;;;;;;;5012221;28;20217;-83
2022/09/14 05:19:06;;;;;;;9.35;8.45;;;;;;;;;;5011680;28;20483;-82
2022/09/14 05:21:35;;;;;;;11.50;8.82;;;;;;;;;;5011631;28;20046;-82
2022/09/14 05:24:04;;;;;;;9.82;8.65;;;;;;;;;;5013419;28;20060;-83
2022/09/14 05:26:31;;;;;;;9.18;8.18;;;;;;;;;;5012715;28;20049;-82
2022/09/14 05:29:00;;;;;;;10.27;8.50;;;;;;;;;;5016221;28;20078;-84
2022/09/14 05:31:27;;;;;;;10.30;9.02;;;;;;;;;;5017703;28;20388;-83
2022/09/14 05:33:55;;;;;;;9.10;8.20;;;;;;;;;;5018098;28;20054;-82
2022/09/14 05:36:23;;;;;;;8.55;7.60;;;;;;;;;;5017985;28;20105;-84
2022/09/14 05:38:50;;;;;;;8.90;8.00;;;;;;;;;;5018959;28;20080;-84
2022/09/14 05:41:17;;;;;;;9.40;8.10;;;;;;;;;;5018604;28;20053;-84
2022/09/14 05:43:44;;;;;;;9.93;8.30;;;;;;;;;;5018718;28;20050;-85
2022/09/14 05:46:13;;;;;;;13.43;9.10;;;;;;;;;;5018782;28;20052;-84
2022/09/14 05:48:40;;;;;;;15.35;11.63;;;;;;;;;;5019794;28;20128;-84
2022/09/14 05:51:15;;;;;;;19.23;15.68;;;;;;;;;;5019832;28;20141;-84
2022/09/14 05:53:46;;;;;;;40.38;25.90;;;;;;;;;;5020889;28;20049;-83
2022/09/14 05:56:13;;;;;;;38.78;25.65;;;;;;;;;;5019544;28;20132;-83
2022/09/14 05:58:41;;;;;;;19.00;14.23;;;;;;;;;;5019679;28;20141;-84
2022/09/14 06:01:13;;;;;;;22.98;13.63;;;;;;;;;;5019471;28;20041;-84
2022/09/14 06:03:41;;;;;;;12.32;11.02;;;;;;;;;;5020044;28;20133;-85
2022/09/14 06:06:09;;;;;;;11.80;9.40;;;;;;;;;;5022393;28;20064;-85
2022/09/14 06:08:36;;;;;;;11.25;9.75;;;;;;;;;;5021118;28;20402;-84
2022/09/14 06:11:08;;;;;;;16.80;12.35;;;;;;;;;;5020649;28;20057;-84
2022/09/14 06:13:36;;;;;;;12.98;10.18;;;;;;;;;;5020294;28;20128;-84
2022/09/14 06:16:04;;;;;;;11.90;10.65;;;;;;;;;;5021213;28;20056;-85
2022/09/14 06:18:35;;;;;;;12.55;10.45;;;;;;;;;;5023682;28;20487;-85
2022/09/14 06:21:02;;;;;;;13.05;9.40;;;;;;;;;;5022454;28;20411;-84
2022/09/14 06:23:30;;;;;;;10.65;9.65;;;;;;;;;;5023002;28;20046;-84
2022/09/14 06:25:58;;;;;;;9.18;8.38;;;;;;;;;;5024731;28;20109;-85
2022/09/14 06:28:26;;;;;;;9.13;8.23;;;;;;;;;;5023574;28;20105;-85
2022/09/14 06:30:54;;;;;;;10.00;8.98;;;;;;;;;;5024284;28;20119;-84
2022/09/14 06:33:21;;;;;;;14.75;10.55;;;;;;;;;;5028426;28;20169;-82
2022/09/14 06:35:54;;;;;;;13.93;11.00;;;;;;;;;;5039410;28;20113;-80
2022/09/14 06:38:22;;;;;;;14.27;11.27;;;;;;;;;;5015047;28;20136;-83
2022/09/14 06:40:55;;;;;;;13.63;10.40;;;;;;;;;;5014073;28;20484;-83
2022/09/14 06:43:23;;;;;;;12.75;11.45;;;;;;;;;;5014292;28;20056;-82
2022/09/14 06:46:04;;;;;;;13.15;11.27;;;;;;;;;;5014626;28;20050;-83
2022/09/14 06:48:33;;;;;;;14.77;12.18;;;;;;;;;;5014162;28;20050;-83
2022/09/14 06:51:00;;;;;;;14.70;13.30;;;;;;;;;;5014153;28;20050;-81
2022/09/14 06:53:27;;;;;;;14.07;11.70;;;;;;;;;;5014096;28;20132;-82
2022/09/14 06:55:58;;;;;;;12.85;11.02;;;;;;;;;;5015377;28;20042;-82
2022/09/14 06:58:26;;;;;;;14.65;10.77;;;;;;;;;;5013974;28;20471;-83
2022/09/14 07:00:53;;;;;;;11.77;9.88;;;;;;;;;;5016880;28;20056;-83
2022/09/14 07:03:20;;;;;;;11.63;9.93;;;;;;;;;;5013755;28;20071;-83
2022/09/14 07:05:47;;;;;;;12.55;9.68;;;;;;;;;;5013533;28;20058;-81
2022/09/14 07:08:14;;;;;;;9.75;7.88;;;;;;;;;;5014345;28;20392;-83
2022/09/14 07:10:43;;;;;;;7.88;7.10;;;;;;;;;;5017096;28;20513;-82
2022/09/14 07:13:10;;;;;;;9.55;6.80;;;;;;;;;;5017096;28;20058;-83
2022/09/14 07:15:37;;;;;;;9.40;7.32;;;;;;;;;;5016935;28;20491;-83
2022/09/14 07:18:05;;;;;;;9.98;6.50;;;;;;;;;;5016530;28;20056;-82
2022/09/14 07:20:33;;;;;;;8.43;7.60;;;;;;;;;;5016430;28;20562;-83
2022/09/14 07:23:00;;;;;;;7.90;7.25;;;;;;;;;;5016913;28;20049;-82
2022/09/14 07:25:27;;;;;;;5.85;5.38;;;;;;;;;;5018195;28;20078;-83
2022/09/14 07:27:55;;;;;;;6.65;4.70;;;;;;;;;;5016092;28;20474;-82
2022/09/14 07:30:23;;;;;;;4.72;4.05;;;;;;;;;;5016720;28;20438;-83
2022/09/14 07:32:51;;;;;;;5.65;5.15;;;;;;;;;;5016660;28;20046;-83
2022/09/14 07:35:18;;;;;;;5.30;4.80;;;;;;;;;;5016195;28;20141;-83
2022/09/14 07:37:45;;;;;;;5.35;4.85;;;;;;;;;;5016466;28;20041;-83
2022/09/14 07:40:12;;;;;;;6.60;6.00;;;;;;;;;;5017197;28;20140;-84
2022/09/14 07:42:39;;;;;;;6.82;5.95;;;;;;;;;;5015797;28;20100;-84
2022/09/14 07:45:07;;;;;;;5.78;5.25;;;;;;;;;;5016205;28;20103;-84
2022/09/14 07:47:34;;;;;;;4.75;4.30;;;;;;;;;;5015789;28;20441;-83
2022/09/14 07:50:01;;;;;;;5.15;4.75;;;;;;;;;;5015826;28;20054;-83
2022/09/14 07:52:28;;;;;;;5.00;4.60;;;;;;;;;;5015418;28;20053;-82
2022/09/14 07:54:55;;;;;;;7.28;5.05;;;;;;;;;;5015665;28;20132;-83
2022/09/14 07:57:23;;;;;;;7.32;4.78;;;;;;;;;;5014566;28;20145;-82
2022/09/14 08:00:11;;;;;;;7.22;5.63;;;;;;;;;;5017988;28;20042;-78
2022/09/14 08:02:38;;;;;;;7.97;5.13;;;;;;;;;;5017536;28;20064;-83
2022/09/14 08:05:06;;;;;;;6.13;5.53;;;;;;;;;;5014986;28;20421;-83
2022/09/14 08:07:36;;;;;;;8.88;6.25;;;;;;;;;;5014701;28;20133;-83
2022/09/14 08:10:03;;;;;;;4.97;4.45;;;;;;;;;;5015372;28;20065;-83
2022/09/14 08:12:31;;;;;;;5.43;4.68;;;;;;;;;;5015175;28;20436;-83
2022/09/14 08:15:00;;;;;;;4.68;4.15;;;;;;;;;;5015545;28;20434;-83
2022/09/14 08:17:28;;;;;;;3.33;3.13;;;;;;;;;;5015310;28;20042;-83
2022/09/14 08:19:55;;;;;;;4.40;4.00;;;;;;;;;;5016058;28;20069;-83
2022/09/14 08:22:24;;;;;;;4.85;4.45;;;;;;;;;;5016905;28;20058;-83
2022/09/14 08:24:51;;;;;;;7.47;6.07;;;;;;;;;;5016681;28;20129;-82
2022/09/14 08:27:18;;;;;;;5.72;5.30;;;;;;;;;;5016138;28;20054;-83
2022/09/14 08:29:45;;;;;;;6.25;5.75;;;;;;;;;;5014650;28;20510;-82
2022/09/14 08:32:13;;;;;;;7.07;5.95;;;;;;;;;;5012919;28;20045;-82
2022/09/14 08:34:40;;;;;;;4.97;4.50;;;;;;;;;;5014081;28;20137;-82
2022/09/14 08:37:09;;;;;;;5.32;4.68;;;;;;;;;;5012555;28;20046;-82
2022/09/14 08:39:36;;;;;;;6.50;4.90;;;;;;;;;;5012216;28;20507;-82
2022/09/14 08:42:05;;;;;;;5.72;4.35;;;;;;;;;;5012417;28;20481;-83
2022/09/14 08:44:46;;;;;;;6.57;4.32;;;;;;;;;;5012222;28;20097;-82
2022/09/14 08:47:27;;;;;;;5.95;4.30;;;;;;;;;;5016284;28;20076;-83
2022/09/14 08:50:01;;;;;;;6.57;4.30;;;;;;;;;;5019609;28;20046;-85
2022/09/14 08:52:36;;;;;;;4.93;4.40;;;;;;;;;;5019689;28;20599;-85
2022/09/14 08:55:22;;;;;;;6.22;5.07;;;;;;;;;;5029457;28;20045;-84
2022/09/14 08:58:13;;;;;;;3.97;3.20;;;;;;;;;;5018393;28;20133;-84
2022/09/14 09:00:47;;;;;;;3.70;2.92;;;;;;;;;;5017780;28;20074;-85
2022/09/14 09:03:26;;;;;;;5.22;3.22;;;;;;;;;;5019026;28;20153;-85
2022/09/14 09:06:10;;;;;;;6.10;3.38;;;;;;;;;;5020352;28;20093;-85
2022/09/14 09:08:48;;;;;;;4.57;4.00;;;;;;;;;;5020369;28;20076;-84
2022/09/14 09:11:20;;;;;;;7.20;3.80;;;;;;;;;;5021349;28;20412;-84
2022/09/14 09:13:49;;;;;;;5.50;3.80;;;;;;;;;;5021369;28;20079;-85
2022/09/14 09:16:19;;;;;;;6.88;4.18;;;;;;;;;;5022138;28;20487;-83
2022/09/14 09:18:48;;;;;;;4.82;3.55;;;;;;;;;;5022221;28;20042;-84
2022/09/14 09:21:15;;;;;;;5.30;3.17;;;;;;;;;;5022613;28;20081;-85
2022/09/14 09:23:43;;;;;;;9.63;3.70;;;;;;;;;;5023820;28;20046;-84
2022/09/14 09:26:10;;;;;;;16.70;3.90;;;;;;;;;;5023130;28;20056;-84
2022/09/14 09:28:42;;;;;;;22.02;3.63;;;;;;;;;;5022454;28;20105;-84
2022/09/14 09:31:13;;;;;;;11.98;3.22;;;;;;;;;;5022948;28;20148;-84
2022/09/14 09:33:41;;;;;;;13.30;3.10;;;;;;;;;;5022557;28;20494;-79
2022/09/14 09:36:12;;;;;;;6.70;2.30;;;;;;;;;;5022542;28;20053;-84
2022/09/14 09:38:39;;;;;;;3.08;2.38;;;;;;;;;;5022315;28;20056;-84
2022/09/14 09:41:16;;;;;;;6.75;2.70;;;;;;;;;;5022096;28;20066;-84
2022/09/14 09:44:05;;;;;;;3.70;3.03;;;;;;;;;;5022378;28;20128;-85
2022/09/14 09:46:34;;;;;;;6.85;2.92;;;;;;;;;;5021926;28;20057;-84
2022/09/14 09:49:02;;;;;;;4.53;2.90;;;;;;;;;;5021798;28;20415;-84
2022/09/14 09:51:30;;;;;;;6.07;2.60;;;;;;;;;;5022039;28;20055;-84
2022/09/14 09:53:58;;;;;;;5.53;2.92;;;;;;;;;;5020800;28;20491;-82
2022/09/14 09:56:27;;;;;;;6.03;3.20;;;;;;;;;;5017712;28;20422;-84
2022/09/14 09:58:54;;;;;;;18.90;4.20;;;;;;;;;;5031994;22;20049;-81
2022/09/14 10:01:27;;;;;;;10.32;4.20;;;;;;;;;;5020195;28;20046;-81
2022/09/14 10:04:02;;;;;;;7.80;3.45;;;;;;;;;;5020494;28;20046;-82
2022/09/14 10:06:30;;;;;;;4.38;2.78;;;;;;;;;;5021765;28;20074;-82
2022/09/14 10:08:58;;;;;;;3.13;2.33;;;;;;;;;;5022144;28;20113;-82
2022/09/14 10:11:36;;;;;;;2.58;2.33;;;;;;;;;;5024403;28;20104;-82
2022/09/14 10:14:04;;;;;;;4.82;2.15;;;;;;;;;;5023408;28;20050;-82
2022/09/14 10:16:37;;;;;;;1.88;1.40;;;;;;;;;;5025044;28;20053;-82
2022/09/14 10:19:12;;;;;;;1.42;1.40;;;;;;;;;;5027591;28;20100;-81
2022/09/14 10:22:00;;;;;;;2.47;1.20;;;;;;;;;;5026640;28;20054;-82
2022/09/14 10:24:27;;;;;;;4.45;1.45;;;;;;;;;;5028112;28;20050;-82
2022/09/14 10:26:54;;;;;;;2.15;0.95;;;;;;;;;;5029005;28;20065;-82
2022/09/14 10:29:37;;;;;;;1.30;1.17;;;;;;;;;;5029804;28;20046;-82
2022/09/14 10:32:11;;;;;;;1.02;1.02;;;;;;;;;;5032977;28;20053;-82
2022/09/14 10:34:38;;;;;;;1.48;1.38;;;;;;;;;;5032997;28;20081;-83
2022/09/14 10:37:11;;;;;;;2.58;1.45;;;;;;;;;;5027740;28;20085;-82
2022/09/14 10:39:40;;;;;;;2.35;1.50;;;;;;;;;;5018374;28;20077;-82
2022/09/14 10:42:11;;;;;;;2.08;1.88;;;;;;;;;;5019874;28;20046;-82
2022/09/14 10:44:58;;;;;;;1.88;1.70;;;;;;;;;;5022006;28;20081;-82
2022/09/14 10:47:51;;;;;;;3.35;2.13;;;;;;;;;;5023383;28;20046;-82
2022/09/14 10:50:34;;;;;;;1.23;1.20;;;;;;;;;;4998498;28;20148;-82
2022/09/14 10:53:20;;;;;;;4.03;1.40;;;;;;;;;;5022709;28;20121;-82
2022/09/14 10:56:00;;;;;;;1.40;1.20;;;;;;;;;;5026064;28;20137;-82
2022/09/14 10:58:48;;;;;;;1.85;1.48;;;;;;;;;;5022934;28;20090;-82
2022/09/14 11:01:15;;;;;;;2.53;1.30;;;;;;;;;;5024582;28;20096;-81
2022/09/14 11:04:07;;;;;;;1.35;1.25;;;;;;;;;;5026751;28;20069;-82
2022/09/14 11:06:54;;;;;;;2.80;1.10;;;;;;;;;;5020220;28;20049;-81
2022/09/14 11:09:36;;;;;;;1.15;1.05;;;;;;;;;;5016868;28;20152;-81
2022/09/14 11:12:05;;;;;;;1.23;1.02;;;;;;;;;;5017935;28;20084;-81
2022/09/14 11:14:32;;;;;;;1.25;1.00;;;;;;;;;;5018203;28;20141;-81
2022/09/14 11:16:59;;;;;;;3.85;1.13;;;;;;;;;;5018274;28;20056;-81
2022/09/14 11:19:45;;;;;;;2.45;1.23;;;;;;;;;;5018627;28;20045;-82
2022/09/14 11:22:28;;;;;;;3.40;1.20;;;;;;;;;;5019071;28;20105;-82
2022/09/14 11:25:14;;;;;;;1.38;1.15;;;;;;;;;;5022398;28;20141;-82
2022/09/14 11:27:44;;;;;;;1.60;1.10;;;;;;;;;;5021907;28;20460;-82
2022/09/14 11:30:18;;;;;;;4.07;1.25;;;;;;;;;;5023432;28;20122;-82
2022/09/14 11:32:52;;;;;;;1.92;1.10;;;;;;;;;;5022241;28;20145;-82
2022/09/14 11:35:19;;;;;;;1.27;1.23;;;;;;;;;;5023605;28;20073;-82
2022/09/14 11:37:49;;;;;;;1.52;1.30;;;;;;;;;;5024371;28;20077;-82
2022/09/14 11:40:19;;;;;;;1.27;1.08;;;;;;;;;;5026526;28;20073;-82
2022/09/14 11:42:59;;;;;;;3.15;1.60;;;;;;;;;;5028411;28;20108;-82
2022/09/14 11:45:31;;;;;;;3.60;1.30;;;;;;;;;;5027435;28;20050;-82
2022/09/14 11:48:01;;;;;;;1.60;1.50;;;;;;;;;;5029124;28;20109;-82
2022/09/14 11:50:30;;;;;;;1.80;1.70;;;;;;;;;;5030878;28;20069;-82
2022/09/14 11:53:02;;;;;;;1.58;1.48;;;;;;;;;;5031752;28;20077;-83
2022/09/14 11:55:30;;;;;;;1.75;1.45;;;;;;;;;;5027685;28;20041;-82
2022/09/14 11:57:58;;;;;;;3.85;1.42;;;;;;;;;;5024630;28;20117;-82
2022/09/14 12:00:32;;;;;;;1.92;1.55;;;;;;;;;;5023981;28;20053;-82
2022/09/14 12:03:12;;;;;;;2.30;1.33;;;;;;;;;;5023717;28;20502;-82
2022/09/14 12:05:39;;;;;;;2.03;1.25;;;;;;;;;;5024640;28;20052;-83
2022/09/14 12:08:25;;;;;;;2.20;1.67;;;;;;;;;;5027167;28;20149;-83
2022/09/14 12:11:09;;;;;;;1.77;1.20;;;;;;;;;;5025299;28;20057;-83
2022/09/14 12:13:36;;;;;;;3.58;1.40;;;;;;;;;;5025257;28;20064;-83
2022/09/14 12:16:05;;;;;;;1.40;1.30;;;;;;;;;;5025829;28;20132;-83
2022/09/14 12:18:35;;;;;;;4.90;1.50;;;;;;;;;;5026394;28;20058;-83
2022/09/14 12:21:04;;;;;;;3.03;1.20;;;;;;;;;;5027361;28;20045;-83
2022/09/14 12:23:40;;;;;;;2.15;0.95;;;;;;;;;;5027791;28;20061;-83
2022/09/14 12:26:11;;;;;;;2.58;1.27;;;;;;;;;;5028395;28;20077;-83
2022/09/14 12:28:49;;;;;;;2.05;1.35;;;;;;;;;;5028688;28;20113;-83
2022/09/14 12:31:36;;;;;;;1.08;0.77;;;;;;;;;;5029062;28;20112;-83
2022/09/14 12:34:22;;;;;;;3.65;0.80;;;;;;;;;;5029734;28;20114;-83
2022/09/14 12:36:49;;;;;;;1.50;0.52;;;;;;;;;;5029236;28;20061;-84
2022/09/14 12:39:27;;;;;;;0.60;0.60;;;;;;;;;;5032191;28;20114;-83
2022/09/14 12:41:54;;;;;;;1.23;0.70;;;;;;;;;;5035368;28;20030;-83
2022/09/14 12:44:29;;;;;;;0.63;0.50;;;;;;;;;;5036166;28;20057;-85
2022/09/14 12:46:56;;;;;;;0.60;0.60;;;;;;;;;;5032341;28;20050;-84
2022/09/14 12:49:28;;;;;;;0.50;0.50;;;;;;;;;;5027637;28;20462;-82
2022/09/14 12:51:56;;;;;;;1.00;0.70;;;;;;;;;;5023996;28;20074;-82
2022/09/14 12:54:31;;;;;;;1.10;0.50;;;;;;;;;;5025937;28;20136;-82
2022/09/14 12:57:06;;;;;;;0.70;0.50;;;;;;;;;;5025018;28;20041;-82
2022/09/14 12:59:52;;;;;;;2.08;0.52;;;;;;;;;;5025266;28;20462;-82
2022/09/14 13:02:38;;;;;;;0.95;0.60;;;;;;;;;;5027208;28;20126;-82
2022/09/14 13:05:11;;;;;;;1.10;0.70;;;;;;;;;;5029126;28;20046;-82
2022/09/14 13:07:39;;;;;;;1.00;1.00;;;;;;;;;;5026992;28;20117;-81
2022/09/14 13:10:06;;;;;;;1.02;1.02;;;;;;;;;;5026574;28;20049;-82
2022/09/14 13:12:33;;;;;;;3.90;0.93;;;;;;;;;;5027707;28;20506;-83
2022/09/14 13:15:02;;;;;;;5.72;1.33;;;;;;;;;;5022688;28;20045;-81
2022/09/14 13:17:29;;;;;;;1.30;1.30;;;;;;;;;;5015977;28;20088;-81
2022/09/14 13:19:58;;;;;;;1.30;1.30;;;;;;;;;;5015642;28;20254;-82
2022/09/14 13:22:28;;;;;;;1.30;1.20;;;;;;;;;;5016070;28;20400;-81
2022/09/14 13:24:55;;;;;;;1.40;1.30;;;;;;;;;;5016114;28;20053;-82
2022/09/14 13:27:27;;;;;;;1.52;1.30;;;;;;;;;;5015644;28;20073;-80
2022/09/14 13:29:59;;;;;;;1.33;1.33;;;;;;;;;;5015513;28;20472;-82
2022/09/14 13:32:26;;;;;;;1.67;1.20;;;;;;;;;;5015189;28;20518;-81
2022/09/14 13:34:54;;;;;;;2.78;1.55;;;;;;;;;;5015513;28;20056;-81
2022/09/14 13:37:21;;;;;;;1.58;1.48;;;;;;;;;;5014916;28;20085;-81
2022/09/14 13:39:50;;;;;;;1.42;1.42;;;;;;;;;;5015150;28;20073;-81
2022/09/14 13:42:18;;;;;;;1.50;1.40;;;;;;;;;;5015350;28;20093;-81
2022/09/14 13:44:46;;;;;;;1.90;1.80;;;;;;;;;;5015434;28;20124;-81
2022/09/14 13:47:15;;;;;;;4.38;2.03;;;;;;;;;;5015150;28;20053;-80
2022/09/14 13:49:43;;;;;;;2.33;2.20;;;;;;;;;;5015022;28;20060;-81
2022/09/14 13:52:18;;;;;;;1.83;1.83;;;;;;;;;;5015008;28;20141;-80
2022/09/14 13:54:45;;;;;;;2.00;1.90;;;;;;;;;;5015081;28;20050;-81
2022/09/14 13:57:20;;;;;;;2.33;2.22;;;;;;;;;;5014973;28;20414;-81
2022/09/14 14:00:07;;;;;;;2.40;2.30;;;;;;;;;;5014673;28;20058;-81
2022/09/14 14:02:35;;;;;;;3.88;2.50;;;;;;;;;;5014827;28;20060;-81
2022/09/14 14:05:04;;;;;;;2.78;2.65;;;;;;;;;;5014925;28;20050;-81
2022/09/14 14:07:33;;;;;;;3.05;2.65;;;;;;;;;;5014690;28;20058;-80
2022/09/14 14:10:02;;;;;;;3.15;2.85;;;;;;;;;;5015809;28;20060;-81
2022/09/14 14:12:40;;;;;;;3.97;3.67;;;;;;;;;;5014291;28;20092;-80
2022/09/14 14:15:11;;;;;;;3.55;3.25;;;;;;;;;;5014456;28;20566;-80
2022/09/14 14:17:39;;;;;;;4.90;4.40;;;;;;;;;;5014286;28;20077;-80
2022/09/14 14:20:25;;;;;;;6.95;4.25;;;;;;;;;;5014464;28;20154;-81
2022/09/14 14:22:57;;;;;;;3.65;3.35;;;;;;;;;;5014357;28;20046;-80
2022/09/14 14:25:32;;;;;;;3.67;2.90;;;;;;;;;;5015762;28;20057;-82
2022/09/14 14:28:00;;;;;;;3.33;3.13;;;;;;;;;;5017069;28;20134;-81
2022/09/14 14:30:29;;;;;;;4.60;4.20;;;;;;;;;;5015869;28;20136;-82
2022/09/14 14:32:57;;;;;;;8.93;4.10;;;;;;;;;;5018091;28;20085;-82
2022/09/14 14:35:29;;;;;;;8.35;3.75;;;;;;;;;;5014918;28;20129;-80
2022/09/14 14:37:56;;;;;;;4.05;3.30;;;;;;;;;;5014361;28;20085;-80
2022/09/14 14:40:26;;;;;;;3.67;3.30;;;;;;;;;;5014583;28;20053;-80
2022/09/14 14:42:53;;;;;;;3.95;3.50;;;;;;;;;;5014733;28;20116;-81
2022/09/14 14:45:25;;;;;;;3.35;3.10;;;;;;;;;;5014357;28;20053;-81
2022/09/14 14:47:53;;;;;;;15.18;5.03;;;;;;;;;;5014477;28;20046;-80
2022/09/14 14:50:22;;;;;;;7.97;5.72;;;;;;;;;;5014720;28;20517;-80
2022/09/14 14:52:50;;;;;;;5.85;5.07;;;;;;;;;;5014650;28;20077;-80
2022/09/14 14:55:19;;;;;;;5.60;5.10;;;;;;;;;;5014622;28;20507;-84
2022/09/14 14:57:47;;;;;;;6.03;5.35;;;;;;;;;;5014532;28;20177;-81